sensor_id;sensor_type;location;lat;lon;timestamp;temperature;humidity
40374;DHT22;26079;45.958;12.492;2023-08-06T00:00:18;18.00;99.90
40374;DHT22;26079;45.958;12.492;2023-08-06T00:02:44;18.00;99.90
40374;DHT22;26079;45.958;12.492;2023-08-06T00:05:10;18.10;99.90
40374;DHT22;26079;45.958;12.492;2023-08-06T00:07:35;18.20;99.90
40374;DHT22;26079;45.958;12.492;2023-08-06T00:10:01;18.20;99.90
40374;DHT22;26079;45.958;12.492;2023-08-06T00:12:27;18.20;99.90
40374;DHT22;26079;45.958;12.492;2023-08-06T00:14:53;18.30;99.90
40374;DHT22;26079;45.958;12.492;2023-08-06T00:17:19;18.30;99.90
40374;DHT22;26079;45.958;12.492;2023-08-06T00:19:45;18.40;99.90
40374;DHT22;26079;45.958;12.492;2023-08-06T00:22:10;18.40;99.90
40374;DHT22;26079;45.958;12.492;2023-08-06T00:24:36;18.40;99.90
40374;DHT22;26079;45.958;12.492;2023-08-06T00:27:02;18.40;99.90
40374;DHT22;26079;45.958;12.492;2023-08-06T00:29:28;18.40;99.90
40374;DHT22;26079;45.958;12.492;2023-08-06T00:31:54;18.30;99.90
40374;DHT22;26079;45.958;12.492;2023-08-06T00:34:20;18.20;99.90
40374;DHT22;26079;45.958;12.492;2023-08-06T00:36:46;18.20;99.90
40374;DHT22;26079;45.958;12.492;2023-08-06T00:39:11;18.20;99.90
40374;DHT22;26079;45.958;12.492;2023-08-06T00:41:37;18.20;99.90
40374;DHT22;26079;45.958;12.492;2023-08-06T00:44:03;18.10;99.90
40374;DHT22;26079;45.958;12.492;2023-08-06T00:46:29;18.10;99.90
40374;DHT22;26079;45.958;12.492;2023-08-06T00:48:56;18.10;99.90
40374;DHT22;26079;45.958;12.492;2023-08-06T00:51:22;18.10;99.90
40374;DHT22;26079;45.958;12.492;2023-08-06T00:53:49;18.10;99.90
40374;DHT22;26079;45.958;12.492;2023-08-06T00:56:15;18.00;99.90
40374;DHT22;26079;45.958;12.492;2023-08-06T00:58:41;18.00;99.90
40374;DHT22;26079;45.958;12.492;2023-08-06T01:01:07;18.10;99.90
40374;DHT22;26079;45.958;12.492;2023-08-06T01:03:33;18.00;99.90
40374;DHT22;26079;45.958;12.492;2023-08-06T01:05:59;18.00;99.90
40374;DHT22;26079;45.958;12.492;2023-08-06T01:08:48;17.90;99.90
40374;DHT22;26079;45.958;12.492;2023-08-06T01:11:47;17.80;99.90
40374;DHT22;26079;45.958;12.492;2023-08-06T01:14:18;17.70;99.90
40374;DHT22;26079;45.958;12.492;2023-08-06T01:16:49;17.70;99.90
40374;DHT22;26079;45.958;12.492;2023-08-06T01:19:16;17.70;99.90
40374;DHT22;26079;45.958;12.492;2023-08-06T01:21:42;17.70;99.90
40374;DHT22;26079;45.958;12.492;2023-08-06T01:24:08;17.70;99.90
40374;DHT22;26079;45.958;12.492;2023-08-06T01:26:42;17.70;99.90
40374;DHT22;26079;45.958;12.492;2023-08-06T01:29:18;17.80;99.90
40374;DHT22;26079;45.958;12.492;2023-08-06T01:31:48;17.90;99.90
40374;DHT22;26079;45.958;12.492;2023-08-06T01:34:24;17.90;99.90
40374;DHT22;26079;45.958;12.492;2023-08-06T01:36:53;17.90;99.90
40374;DHT22;26079;45.958;12.492;2023-08-06T01:39:19;18.00;99.90
40374;DHT22;26079;45.958;12.492;2023-08-06T01:41:48;17.90;99.90
40374;DHT22;26079;45.958;12.492;2023-08-06T01:44:15;17.90;99.90
40374;DHT22;26079;45.958;12.492;2023-08-06T01:46:41;17.90;99.90
40374;DHT22;26079;45.958;12.492;2023-08-06T01:49:07;17.90;99.90
40374;DHT22;26079;45.958;12.492;2023-08-06T01:51:32;17.90;99.90
40374;DHT22;26079;45.958;12.492;2023-08-06T01:53:58;17.90;99.90
40374;DHT22;26079;45.958;12.492;2023-08-06T01:56:24;18.00;99.90
40374;DHT22;26079;45.958;12.492;2023-08-06T01:58:50;18.00;99.90
40374;DHT22;26079;45.958;12.492;2023-08-06T02:01:15;18.00;99.90
40374;DHT22;26079;45.958;12.492;2023-08-06T02:03:41;18.10;99.90
40374;DHT22;26079;45.958;12.492;2023-08-06T02:06:07;18.10;99.90
40374;DHT22;26079;45.958;12.492;2023-08-06T02:08:32;18.10;99.90
40374;DHT22;26079;45.958;12.492;2023-08-06T02:10:58;18.00;99.90
40374;DHT22;26079;45.958;12.492;2023-08-06T02:13:25;17.90;99.90
40374;DHT22;26079;45.958;12.492;2023-08-06T02:15:50;18.00;99.90
40374;DHT22;26079;45.958;12.492;2023-08-06T02:18:16;18.00;99.90
40374;DHT22;26079;45.958;12.492;2023-08-06T02:20:42;18.10;99.90
40374;DHT22;26079;45.958;12.492;2023-08-06T02:23:08;18.10;99.90
40374;DHT22;26079;45.958;12.492;2023-08-06T02:25:34;18.10;99.90
40374;DHT22;26079;45.958;12.492;2023-08-06T02:28:00;18.00;99.90
40374;DHT22;26079;45.958;12.492;2023-08-06T02:30:26;18.10;99.90
40374;DHT22;26079;45.958;12.492;2023-08-06T02:32:52;18.10;99.90
40374;DHT22;26079;45.958;12.492;2023-08-06T02:35:18;18.10;99.90
40374;DHT22;26079;45.958;12.492;2023-08-06T02:37:43;18.10;99.90
40374;DHT22;26079;45.958;12.492;2023-08-06T02:40:09;18.10;99.90
40374;DHT22;26079;45.958;12.492;2023-08-06T02:42:35;18.10;99.90
40374;DHT22;26079;45.958;12.492;2023-08-06T02:45:01;18.10;99.90
40374;DHT22;26079;45.958;12.492;2023-08-06T02:47:26;18.10;99.90
40374;DHT22;26079;45.958;12.492;2023-08-06T02:49:52;18.00;99.90
40374;DHT22;26079;45.958;12.492;2023-08-06T02:52:18;18.00;99.90
40374;DHT22;26079;45.958;12.492;2023-08-06T02:54:44;18.00;99.90
40374;DHT22;26079;45.958;12.492;2023-08-06T02:57:09;18.00;99.90
40374;DHT22;26079;45.958;12.492;2023-08-06T02:59:35;17.90;99.90
40374;DHT22;26079;45.958;12.492;2023-08-06T03:02:01;17.90;99.90
40374;DHT22;26079;45.958;12.492;2023-08-06T03:04:27;17.90;99.90
40374;DHT22;26079;45.958;12.492;2023-08-06T03:06:53;17.70;99.90
40374;DHT22;26079;45.958;12.492;2023-08-06T03:09:18;17.70;99.90
40374;DHT22;26079;45.958;12.492;2023-08-06T03:11:44;17.70;99.90
40374;DHT22;26079;45.958;12.492;2023-08-06T03:14:10;17.70;99.90
40374;DHT22;26079;45.958;12.492;2023-08-06T03:16:35;17.70;99.90
40374;DHT22;26079;45.958;12.492;2023-08-06T03:19:01;17.60;99.90
40374;DHT22;26079;45.958;12.492;2023-08-06T03:21:27;17.60;99.90
40374;DHT22;26079;45.958;12.492;2023-08-06T03:23:53;17.50;99.90
40374;DHT22;26079;45.958;12.492;2023-08-06T03:26:19;17.50;99.90
40374;DHT22;26079;45.958;12.492;2023-08-06T03:28:44;17.50;99.90
40374;DHT22;26079;45.958;12.492;2023-08-06T03:31:10;17.40;99.90
40374;DHT22;26079;45.958;12.492;2023-08-06T03:33:36;17.30;99.90
40374;DHT22;26079;45.958;12.492;2023-08-06T03:36:02;17.30;99.90
40374;DHT22;26079;45.958;12.492;2023-08-06T03:38:27;17.30;99.90
40374;DHT22;26079;45.958;12.492;2023-08-06T03:40:53;17.30;99.90
40374;DHT22;26079;45.958;12.492;2023-08-06T03:43:19;17.30;99.90
40374;DHT22;26079;45.958;12.492;2023-08-06T03:45:45;17.30;99.90
40374;DHT22;26079;45.958;12.492;2023-08-06T03:48:10;17.30;99.90
40374;DHT22;26079;45.958;12.492;2023-08-06T03:50:36;17.30;99.90
40374;DHT22;26079;45.958;12.492;2023-08-06T03:53:02;17.30;99.90
40374;DHT22;26079;45.958;12.492;2023-08-06T03:55:28;17.30;99.90
40374;DHT22;26079;45.958;12.492;2023-08-06T03:57:53;17.30;99.90
40374;DHT22;26079;45.958;12.492;2023-08-06T04:00:19;17.40;99.90
40374;DHT22;26079;45.958;12.492;2023-08-06T04:02:45;17.40;99.90
40374;DHT22;26079;45.958;12.492;2023-08-06T04:05:11;17.40;99.90
40374;DHT22;26079;45.958;12.492;2023-08-06T04:07:37;17.50;99.90
40374;DHT22;26079;45.958;12.492;2023-08-06T04:10:04;17.60;99.90
40374;DHT22;26079;45.958;12.492;2023-08-06T04:12:30;17.60;99.90
40374;DHT22;26079;45.958;12.492;2023-08-06T04:14:58;17.60;99.90
40374;DHT22;26079;45.958;12.492;2023-08-06T04:17:24;17.70;99.90
40374;DHT22;26079;45.958;12.492;2023-08-06T04:19:54;17.70;99.90
40374;DHT22;26079;45.958;12.492;2023-08-06T04:22:20;17.70;99.90
40374;DHT22;26079;45.958;12.492;2023-08-06T04:24:46;17.70;99.90
40374;DHT22;26079;45.958;12.492;2023-08-06T04:27:13;17.70;99.90
40374;DHT22;26079;45.958;12.492;2023-08-06T04:29:39;17.60;99.90
40374;DHT22;26079;45.958;12.492;2023-08-06T04:32:07;17.40;99.90
40374;DHT22;26079;45.958;12.492;2023-08-06T04:34:33;17.40;99.90
40374;DHT22;26079;45.958;12.492;2023-08-06T04:36:59;17.30;99.90
40374;DHT22;26079;45.958;12.492;2023-08-06T04:39:25;17.30;99.90
40374;DHT22;26079;45.958;12.492;2023-08-06T04:41:50;17.30;99.90
40374;DHT22;26079;45.958;12.492;2023-08-06T04:44:16;17.30;99.90
40374;DHT22;26079;45.958;12.492;2023-08-06T04:46:42;17.30;99.90
40374;DHT22;26079;45.958;12.492;2023-08-06T04:49:07;17.40;99.90
40374;DHT22;26079;45.958;12.492;2023-08-06T04:51:33;17.40;99.90
40374;DHT22;26079;45.958;12.492;2023-08-06T04:53:59;17.40;99.90
40374;DHT22;26079;45.958;12.492;2023-08-06T04:56:24;17.40;99.90
40374;DHT22;26079;45.958;12.492;2023-08-06T04:58:50;17.40;99.90
40374;DHT22;26079;45.958;12.492;2023-08-06T05:01:16;17.40;99.90
40374;DHT22;26079;45.958;12.492;2023-08-06T05:03:42;17.50;99.90
40374;DHT22;26079;45.958;12.492;2023-08-06T05:06:08;17.60;99.90
40374;DHT22;26079;45.958;12.492;2023-08-06T05:08:33;17.60;99.90
40374;DHT22;26079;45.958;12.492;2023-08-06T05:10:59;17.70;99.90
40374;DHT22;26079;45.958;12.492;2023-08-06T05:13:25;17.70;99.90
40374;DHT22;26079;45.958;12.492;2023-08-06T05:15:53;17.70;99.90
40374;DHT22;26079;45.958;12.492;2023-08-06T05:18:18;17.60;99.90
40374;DHT22;26079;45.958;12.492;2023-08-06T05:20:45;17.60;99.90
40374;DHT22;26079;45.958;12.492;2023-08-06T05:23:11;17.60;99.90
40374;DHT22;26079;45.958;12.492;2023-08-06T05:25:37;17.50;99.90
40374;DHT22;26079;45.958;12.492;2023-08-06T05:28:03;17.60;99.90
40374;DHT22;26079;45.958;12.492;2023-08-06T05:30:29;17.60;99.90
40374;DHT22;26079;45.958;12.492;2023-08-06T05:32:55;17.60;99.90
40374;DHT22;26079;45.958;12.492;2023-08-06T05:35:21;17.60;99.90
40374;DHT22;26079;45.958;12.492;2023-08-06T05:37:47;17.70;99.90
40374;DHT22;26079;45.958;12.492;2023-08-06T05:40:12;17.70;99.90
40374;DHT22;26079;45.958;12.492;2023-08-06T05:42:38;17.80;99.90
40374;DHT22;26079;45.958;12.492;2023-08-06T05:45:04;17.90;99.90
40374;DHT22;26079;45.958;12.492;2023-08-06T05:47:30;18.10;99.90
40374;DHT22;26079;45.958;12.492;2023-08-06T05:49:56;18.40;99.90
40374;DHT22;26079;45.958;12.492;2023-08-06T05:52:21;18.70;99.90
40374;DHT22;26079;45.958;12.492;2023-08-06T05:54:47;18.80;99.90
40374;DHT22;26079;45.958;12.492;2023-08-06T05:57:13;18.90;99.90
40374;DHT22;26079;45.958;12.492;2023-08-06T05:59:40;19.10;99.90
40374;DHT22;26079;45.958;12.492;2023-08-06T06:02:06;19.30;99.90
40374;DHT22;26079;45.958;12.492;2023-08-06T06:04:31;19.50;99.90
40374;DHT22;26079;45.958;12.492;2023-08-06T06:06:57;19.60;99.90
40374;DHT22;26079;45.958;12.492;2023-08-06T06:09:23;19.80;99.90
40374;DHT22;26079;45.958;12.492;2023-08-06T06:11:49;19.90;99.90
40374;DHT22;26079;45.958;12.492;2023-08-06T06:14:18;20.10;99.90
40374;DHT22;26079;45.958;12.492;2023-08-06T06:16:45;20.10;99.50
40374;DHT22;26079;45.958;12.492;2023-08-06T06:19:11;20.10;99.20
40374;DHT22;26079;45.958;12.492;2023-08-06T06:21:37;20.10;99.90
40374;DHT22;26079;45.958;12.492;2023-08-06T06:24:04;20.20;99.90
40374;DHT22;26079;45.958;12.492;2023-08-06T06:26:31;20.40;99.40
40374;DHT22;26079;45.958;12.492;2023-08-06T06:28:57;20.60;98.30
40374;DHT22;26079;45.958;12.492;2023-08-06T06:31:23;20.50;98.00
40374;DHT22;26079;45.958;12.492;2023-08-06T06:33:48;20.30;98.70
40374;DHT22;26079;45.958;12.492;2023-08-06T06:36:14;20.20;99.00
40374;DHT22;26079;45.958;12.492;2023-08-06T06:38:40;20.20;99.10
40374;DHT22;26079;45.958;12.492;2023-08-06T06:41:05;20.20;99.90
40374;DHT22;26079;45.958;12.492;2023-08-06T06:43:31;20.20;99.90
40374;DHT22;26079;45.958;12.492;2023-08-06T06:46:00;20.40;99.90
40374;DHT22;26079;45.958;12.492;2023-08-06T06:48:28;20.60;99.00
40374;DHT22;26079;45.958;12.492;2023-08-06T06:50:54;20.90;96.70
40374;DHT22;26079;45.958;12.492;2023-08-06T06:53:23;21.00;98.40
40374;DHT22;26079;45.958;12.492;2023-08-06T06:55:56;21.20;96.80
40374;DHT22;26079;45.958;12.492;2023-08-06T06:58:22;21.10;96.80
40374;DHT22;26079;45.958;12.492;2023-08-06T07:00:48;21.00;97.20
40374;DHT22;26079;45.958;12.492;2023-08-06T07:03:16;21.00;96.50
40374;DHT22;26079;45.958;12.492;2023-08-06T07:05:45;20.90;96.90
40374;DHT22;26079;45.958;12.492;2023-08-06T07:08:10;20.90;96.20
40374;DHT22;26079;45.958;12.492;2023-08-06T07:10:37;20.80;96.50
40374;DHT22;26079;45.958;12.492;2023-08-06T07:13:02;20.80;95.20
40374;DHT22;26079;45.958;12.492;2023-08-06T07:15:28;20.80;95.80
40374;DHT22;26079;45.958;12.492;2023-08-06T07:17:54;21.00;96.00
40374;DHT22;26079;45.958;12.492;2023-08-06T07:20:20;21.10;94.60
40374;DHT22;26079;45.958;12.492;2023-08-06T07:22:46;21.20;94.20
40374;DHT22;26079;45.958;12.492;2023-08-06T07:25:12;21.20;93.20
40374;DHT22;26079;45.958;12.492;2023-08-06T07:27:39;21.10;94.80
40374;DHT22;26079;45.958;12.492;2023-08-06T07:30:05;21.10;95.30
40374;DHT22;26079;45.958;12.492;2023-08-06T07:32:31;21.20;95.40
40374;DHT22;26079;45.958;12.492;2023-08-06T07:34:57;21.30;94.60
40374;DHT22;26079;45.958;12.492;2023-08-06T07:37:29;21.30;95.30
40374;DHT22;26079;45.958;12.492;2023-08-06T07:39:55;21.40;95.00
40374;DHT22;26079;45.958;12.492;2023-08-06T07:42:21;21.40;95.30
40374;DHT22;26079;45.958;12.492;2023-08-06T07:44:54;21.50;94.80
40374;DHT22;26079;45.958;12.492;2023-08-06T07:47:20;21.50;95.20
40374;DHT22;26079;45.958;12.492;2023-08-06T07:49:46;21.60;93.60
40374;DHT22;26079;45.958;12.492;2023-08-06T07:52:12;21.70;92.40
40374;DHT22;26079;45.958;12.492;2023-08-06T07:54:37;21.80;93.30
40374;DHT22;26079;45.958;12.492;2023-08-06T07:57:03;21.80;90.80
40374;DHT22;26079;45.958;12.492;2023-08-06T07:59:29;21.70;92.10
40374;DHT22;26079;45.958;12.492;2023-08-06T08:01:55;21.70;90.30
40374;DHT22;26079;45.958;12.492;2023-08-06T08:04:20;21.60;90.40
40374;DHT22;26079;45.958;12.492;2023-08-06T08:06:46;21.80;92.70
40374;DHT22;26079;45.958;12.492;2023-08-06T08:09:13;21.90;91.10
40374;DHT22;26079;45.958;12.492;2023-08-06T08:11:39;22.10;91.30
40374;DHT22;26079;45.958;12.492;2023-08-06T08:14:05;22.30;89.80
40374;DHT22;26079;45.958;12.492;2023-08-06T08:16:31;22.40;89.60
40374;DHT22;26079;45.958;12.492;2023-08-06T08:18:57;22.40;90.40
40374;DHT22;26079;45.958;12.492;2023-08-06T08:21:23;22.50;89.50
40374;DHT22;26079;45.958;12.492;2023-08-06T08:23:50;22.50;89.20
40374;DHT22;26079;45.958;12.492;2023-08-06T08:26:16;22.50;90.90
40374;DHT22;26079;45.958;12.492;2023-08-06T08:28:41;22.50;89.20
40374;DHT22;26079;45.958;12.492;2023-08-06T08:31:11;22.40;89.50
40374;DHT22;26079;45.958;12.492;2023-08-06T08:33:37;22.20;90.20
40374;DHT22;26079;45.958;12.492;2023-08-06T08:36:03;22.30;90.20
40374;DHT22;26079;45.958;12.492;2023-08-06T08:38:29;22.40;91.80
40374;DHT22;26079;45.958;12.492;2023-08-06T08:40:55;22.60;89.00
40374;DHT22;26079;45.958;12.492;2023-08-06T08:43:21;22.70;89.50
40374;DHT22;26079;45.958;12.492;2023-08-06T08:45:50;22.80;87.50
40374;DHT22;26079;45.958;12.492;2023-08-06T08:48:17;22.90;87.50
40374;DHT22;26079;45.958;12.492;2023-08-06T08:50:45;22.80;88.10
40374;DHT22;26079;45.958;12.492;2023-08-06T08:53:13;22.80;88.80
40374;DHT22;26079;45.958;12.492;2023-08-06T08:55:40;22.90;88.10
40374;DHT22;26079;45.958;12.492;2023-08-06T08:58:06;22.90;87.80
40374;DHT22;26079;45.958;12.492;2023-08-06T09:00:32;22.70;87.70
40374;DHT22;26079;45.958;12.492;2023-08-06T09:02:59;22.60;90.10
40374;DHT22;26079;45.958;12.492;2023-08-06T09:05:27;22.60;87.60
40374;DHT22;26079;45.958;12.492;2023-08-06T09:07:55;22.60;86.20
40374;DHT22;26079;45.958;12.492;2023-08-06T09:10:23;22.60;86.10
40374;DHT22;26079;45.958;12.492;2023-08-06T09:12:51;22.70;87.00
40374;DHT22;26079;45.958;12.492;2023-08-06T09:15:20;23.00;88.20
40374;DHT22;26079;45.958;12.492;2023-08-06T09:17:45;23.20;88.50
40374;DHT22;26079;45.958;12.492;2023-08-06T09:20:12;23.30;88.60
40374;DHT22;26079;45.958;12.492;2023-08-06T09:22:38;23.30;87.90
40374;DHT22;26079;45.958;12.492;2023-08-06T09:25:05;23.20;86.70
40374;DHT22;26079;45.958;12.492;2023-08-06T09:27:36;23.20;86.70
40374;DHT22;26079;45.958;12.492;2023-08-06T09:30:02;23.20;87.20
40374;DHT22;26079;45.958;12.492;2023-08-06T09:32:45;23.40;86.90
40374;DHT22;26079;45.958;12.492;2023-08-06T09:35:16;23.50;82.60
40374;DHT22;26079;45.958;12.492;2023-08-06T09:37:42;23.60;84.30
40374;DHT22;26079;45.958;12.492;2023-08-06T09:40:31;23.80;82.90
40374;DHT22;26079;45.958;12.492;2023-08-06T09:42:58;23.90;83.70
40374;DHT22;26079;45.958;12.492;2023-08-06T09:45:32;24.30;81.70
40374;DHT22;26079;45.958;12.492;2023-08-06T09:47:59;24.40;80.10
40374;DHT22;26079;45.958;12.492;2023-08-06T09:50:30;24.50;80.10
40374;DHT22;26079;45.958;12.492;2023-08-06T09:52:57;24.80;80.80
40374;DHT22;26079;45.958;12.492;2023-08-06T09:55:24;25.00;80.20
40374;DHT22;26079;45.958;12.492;2023-08-06T09:57:52;24.90;78.50
40374;DHT22;26079;45.958;12.492;2023-08-06T10:00:19;24.80;79.30
40374;DHT22;26079;45.958;12.492;2023-08-06T10:02:46;24.50;79.60
40374;DHT22;26079;45.958;12.492;2023-08-06T10:05:12;24.30;82.90
40374;DHT22;26079;45.958;12.492;2023-08-06T10:07:39;24.10;81.20
40374;DHT22;26079;45.958;12.492;2023-08-06T10:10:06;24.00;80.50
40374;DHT22;26079;45.958;12.492;2023-08-06T10:12:40;23.80;82.60
40374;DHT22;26079;45.958;12.492;2023-08-06T10:15:11;23.80;83.70
40374;DHT22;26079;45.958;12.492;2023-08-06T10:17:37;23.60;83.00
40374;DHT22;26079;45.958;12.492;2023-08-06T10:20:08;23.50;82.40
40374;DHT22;26079;45.958;12.492;2023-08-06T10:22:34;23.50;84.00
40374;DHT22;26079;45.958;12.492;2023-08-06T10:25:01;23.90;82.70
40374;DHT22;26079;45.958;12.492;2023-08-06T10:27:40;24.10;83.90
40374;DHT22;26079;45.958;12.492;2023-08-06T10:30:32;24.40;82.30
40374;DHT22;26079;45.958;12.492;2023-08-06T10:33:02;24.30;81.50
40374;DHT22;26079;45.958;12.492;2023-08-06T10:40:29;24.10;83.50
40374;DHT22;26079;45.958;12.492;2023-08-06T10:42:59;24.30;81.80
40374;DHT22;26079;45.958;12.492;2023-08-06T10:45:25;24.30;82.70
40374;DHT22;26079;45.958;12.492;2023-08-06T10:47:54;24.30;80.20
40374;DHT22;26079;45.958;12.492;2023-08-06T10:50:20;24.30;81.30
40374;DHT22;26079;45.958;12.492;2023-08-06T10:52:47;24.20;81.90
40374;DHT22;26079;45.958;12.492;2023-08-06T10:55:13;24.30;82.00
40374;DHT22;26079;45.958;12.492;2023-08-06T10:57:40;24.40;81.20
40374;DHT22;26079;45.958;12.492;2023-08-06T11:00:07;24.50;80.60
40374;DHT22;26079;45.958;12.492;2023-08-06T11:02:36;24.50;81.80
40374;DHT22;26079;45.958;12.492;2023-08-06T11:05:10;24.50;80.50
40374;DHT22;26079;45.958;12.492;2023-08-06T11:07:37;24.40;80.50
40374;DHT22;26079;45.958;12.492;2023-08-06T11:10:08;24.20;79.90
40374;DHT22;26079;45.958;12.492;2023-08-06T11:12:34;24.20;82.40
40374;DHT22;26079;45.958;12.492;2023-08-06T11:15:00;24.20;81.10
40374;DHT22;26079;45.958;12.492;2023-08-06T11:17:30;24.20;81.50
40374;DHT22;26079;45.958;12.492;2023-08-06T11:19:59;24.30;82.10
40374;DHT22;26079;45.958;12.492;2023-08-06T11:22:25;24.50;81.40
40374;DHT22;26079;45.958;12.492;2023-08-06T11:24:53;24.50;81.70
40374;DHT22;26079;45.958;12.492;2023-08-06T11:27:19;24.60;79.70
40374;DHT22;26079;45.958;12.492;2023-08-06T11:29:45;24.50;81.10
40374;DHT22;26079;45.958;12.492;2023-08-06T11:32:11;24.60;81.90
40374;DHT22;26079;45.958;12.492;2023-08-06T11:34:38;24.60;81.60
40374;DHT22;26079;45.958;12.492;2023-08-06T11:37:04;24.70;82.00
40374;DHT22;26079;45.958;12.492;2023-08-06T11:39:46;24.50;81.00
40374;DHT22;26079;45.958;12.492;2023-08-06T11:42:12;24.40;81.50
40374;DHT22;26079;45.958;12.492;2023-08-06T11:44:37;24.40;81.10
40374;DHT22;26079;45.958;12.492;2023-08-06T11:47:04;24.50;83.20
40374;DHT22;26079;45.958;12.492;2023-08-06T11:49:42;24.70;79.30
40374;DHT22;26079;45.958;12.492;2023-08-06T11:54:37;24.70;81.30
40374;DHT22;26079;45.958;12.492;2023-08-06T11:57:06;24.80;79.20
40374;DHT22;26079;45.958;12.492;2023-08-06T11:59:32;24.90;79.60
40374;DHT22;26079;45.958;12.492;2023-08-06T12:02:01;25.00;79.80
40374;DHT22;26079;45.958;12.492;2023-08-06T12:04:27;25.20;79.20
40374;DHT22;26079;45.958;12.492;2023-08-06T12:06:52;25.40;78.50
40374;DHT22;26079;45.958;12.492;2023-08-06T12:09:18;25.30;78.60
40374;DHT22;26079;45.958;12.492;2023-08-06T12:11:44;25.30;78.70
40374;DHT22;26079;45.958;12.492;2023-08-06T12:14:10;25.20;78.80
40374;DHT22;26079;45.958;12.492;2023-08-06T12:16:36;25.30;78.80
40374;DHT22;26079;45.958;12.492;2023-08-06T12:19:01;25.40;79.40
40374;DHT22;26079;45.958;12.492;2023-08-06T12:21:27;25.40;79.10
40374;DHT22;26079;45.958;12.492;2023-08-06T12:23:53;25.50;79.90
40374;DHT22;26079;45.958;12.492;2023-08-06T12:26:18;25.60;78.80
40374;DHT22;26079;45.958;12.492;2023-08-06T12:28:44;25.70;78.10
40374;DHT22;26079;45.958;12.492;2023-08-06T12:31:10;25.90;75.50
40374;DHT22;26079;45.958;12.492;2023-08-06T12:33:35;25.90;76.10
40374;DHT22;26079;45.958;12.492;2023-08-06T12:36:01;26.00;76.60
40374;DHT22;26079;45.958;12.492;2023-08-06T12:38:27;26.20;75.40
40374;DHT22;26079;45.958;12.492;2023-08-06T12:40:52;26.40;74.20
40374;DHT22;26079;45.958;12.492;2023-08-06T12:43:18;26.70;75.80
40374;DHT22;26079;45.958;12.492;2023-08-06T12:45:44;26.90;74.10
40374;DHT22;26079;45.958;12.492;2023-08-06T12:48:09;27.00;72.60
40374;DHT22;26079;45.958;12.492;2023-08-06T12:50:35;26.90;73.90
40374;DHT22;26079;45.958;12.492;2023-08-06T12:53:01;27.00;75.00
40374;DHT22;26079;45.958;12.492;2023-08-06T12:55:27;27.10;73.30
40374;DHT22;26079;45.958;12.492;2023-08-06T12:57:53;27.00;73.30
40374;DHT22;26079;45.958;12.492;2023-08-06T13:00:19;26.90;72.80
40374;DHT22;26079;45.958;12.492;2023-08-06T13:02:44;26.70;71.20
40374;DHT22;26079;45.958;12.492;2023-08-06T13:05:10;26.40;72.10
40374;DHT22;26079;45.958;12.492;2023-08-06T13:07:36;26.40;73.60
40374;DHT22;26079;45.958;12.492;2023-08-06T13:10:01;26.30;73.80
40374;DHT22;26079;45.958;12.492;2023-08-06T13:12:27;26.10;75.80
40374;DHT22;26079;45.958;12.492;2023-08-06T13:14:53;26.10;76.90
40374;DHT22;26079;45.958;12.492;2023-08-06T13:17:20;25.70;78.50
40374;DHT22;26079;45.958;12.492;2023-08-06T13:19:46;25.10;80.50
40374;DHT22;26079;45.958;12.492;2023-08-06T13:22:12;25.10;83.40
40374;DHT22;26079;45.958;12.492;2023-08-06T13:24:37;25.00;82.20
40374;DHT22;26079;45.958;12.492;2023-08-06T13:27:03;24.80;81.10
40374;DHT22;26079;45.958;12.492;2023-08-06T13:29:29;24.70;82.60
40374;DHT22;26079;45.958;12.492;2023-08-06T13:31:54;24.60;83.60
40374;DHT22;26079;45.958;12.492;2023-08-06T13:34:20;24.40;83.50
40374;DHT22;26079;45.958;12.492;2023-08-06T13:36:46;24.20;85.30
40374;DHT22;26079;45.958;12.492;2023-08-06T13:39:12;24.20;86.00
40374;DHT22;26079;45.958;12.492;2023-08-06T13:41:38;24.10;86.70
40374;DHT22;26079;45.958;12.492;2023-08-06T13:44:05;24.20;88.20
40374;DHT22;26079;45.958;12.492;2023-08-06T13:46:30;24.20;86.10
40374;DHT22;26079;45.958;12.492;2023-08-06T13:48:56;24.10;84.60
40374;DHT22;26079;45.958;12.492;2023-08-06T13:51:22;23.90;83.20
40374;DHT22;26079;45.958;12.492;2023-08-06T13:53:48;23.80;82.30
40374;DHT22;26079;45.958;12.492;2023-08-06T13:56:13;23.70;83.50
40374;DHT22;26079;45.958;12.492;2023-08-06T13:58:43;23.50;83.40
40374;DHT22;26079;45.958;12.492;2023-08-06T14:01:10;23.40;83.90
40374;DHT22;26079;45.958;12.492;2023-08-06T14:03:36;23.20;83.70
40374;DHT22;26079;45.958;12.492;2023-08-06T14:06:01;23.00;84.90
40374;DHT22;26079;45.958;12.492;2023-08-06T14:08:27;22.70;86.10
40374;DHT22;26079;45.958;12.492;2023-08-06T14:10:53;22.60;87.40
40374;DHT22;26079;45.958;12.492;2023-08-06T14:13:19;22.40;87.30
40374;DHT22;26079;45.958;12.492;2023-08-06T14:15:45;22.30;88.40
40374;DHT22;26079;45.958;12.492;2023-08-06T14:18:14;22.20;90.30
40374;DHT22;26079;45.958;12.492;2023-08-06T14:20:41;22.00;90.50
40374;DHT22;26079;45.958;12.492;2023-08-06T14:23:07;21.80;92.90
40374;DHT22;26079;45.958;12.492;2023-08-06T14:25:32;21.70;93.50
40374;DHT22;26079;45.958;12.492;2023-08-06T14:27:58;21.20;92.80
40374;DHT22;26079;45.958;12.492;2023-08-06T14:30:24;19.30;83.70
40374;DHT22;26079;45.958;12.492;2023-08-06T14:32:50;17.50;96.00
40374;DHT22;26079;45.958;12.492;2023-08-06T14:35:15;16.70;99.90
40374;DHT22;26079;45.958;12.492;2023-08-06T14:37:41;16.00;99.90
40374;DHT22;26079;45.958;12.492;2023-08-06T14:40:08;15.50;99.90
40374;DHT22;26079;45.958;12.492;2023-08-06T14:42:34;15.80;99.90
40374;DHT22;26079;45.958;12.492;2023-08-06T14:44:59;16.20;99.90
40374;DHT22;26079;45.958;12.492;2023-08-06T14:47:25;16.70;99.90
40374;DHT22;26079;45.958;12.492;2023-08-06T14:49:51;17.00;99.90
40374;DHT22;26079;45.958;12.492;2023-08-06T14:52:16;17.30;99.90
40374;DHT22;26079;45.958;12.492;2023-08-06T14:54:42;17.50;99.90
40374;DHT22;26079;45.958;12.492;2023-08-06T14:57:09;17.50;99.90
40374;DHT22;26079;45.958;12.492;2023-08-06T14:59:35;17.50;99.90
40374;DHT22;26079;45.958;12.492;2023-08-06T15:02:01;17.40;99.90
40374;DHT22;26079;45.958;12.492;2023-08-06T15:04:27;17.50;99.50
40374;DHT22;26079;45.958;12.492;2023-08-06T15:06:53;17.70;99.90
40374;DHT22;26079;45.958;12.492;2023-08-06T15:09:19;18.00;99.90
40374;DHT22;26079;45.958;12.492;2023-08-06T15:11:47;18.50;98.20
40374;DHT22;26079;45.958;12.492;2023-08-06T15:14:13;18.40;99.90
40374;DHT22;26079;45.958;12.492;2023-08-06T15:16:40;18.20;99.90
40374;DHT22;26079;45.958;12.492;2023-08-06T15:19:06;18.10;99.90